CNU4 weather

Belleville Airport
Belleville, Ontario, Canada

Public forecast

Using degrees Celsius for public forecast. Weather courtesy of forecast.io.

Closest aviation weather report (METAR) to Belleville Airport

Closest report is CFB Trenton, 10.4 nm (19.3 km) WSW. Retrieved 2019/11/13 11:00 UTC (2 minutes ago):

CYTR 131100Z 28003KT 15SM SKC M17/M20 A3034 RMK SLP284

Closest aviation forecast (TAF) to Belleville Airport

Closest forecast is CFB Trenton, 10.4 nm (19.3 km) WSW. Retrieved 2019/11/13 06:33 UTC (4 hours ago):

TAF CYTR 130530Z 1306/1406 30005KT P6SM FEW030 FM131700 22005KT P6SM SCT200 FM132200 VRB03KT P6SM SCT020 BKN100 FM140200 VRB03KT 5SM -SN BKN020 OVC080 BECMG 1404/1406 18010KT RMK NXT FCST BY 131200Z